Aérodrome :
LOGIN :

S'inscrire | Disclaimer

   EN    FR    IT 

 










Légende :    VFR   VFR Marginal   IFR   IFR Intensif   IFR Très Intensif
Visi : 
Plafond : 
>= 8 km
>= 3000ft
5 à 8 km
1000 à 3000 ft
1500m à 5 km
500 à 1000 ft
800 à 1500m
200 à 500 ft
< 800m
< 200 ft
Symboles :   Orages  Brouillard  Fortes neiges  Fortes précipitations  Vent > 20 kt
SIGMETs :   Divers  Orages  Givrage  Turbulence  Onde Orograph.  Cendres Volcan.






- Altitude de l'aérodrome : 26 ft
- Code IATA : SYY


EGPO - Stornoway

DERNIER METAR :
  • 231320Z 19026G37KT 9999 -RA BKN009 BKN016 12/11 Q0997

METARs EXPIRÉS :
  • 231250Z 19030G42KT 9999 -RA BKN009 BKN016 12/10 Q0997
  • 231220Z 19030KT 9999 -RA BKN009 BKN016 12/11 Q0998
  • 231150Z 19029G41KT 9999 -RA BKN009 BKN016 12/11 Q0998
  • 231120Z 19028G38KT 6000 RADZ BKN007 BKN014 12/11 Q0999
  • 231050Z 18027KT 9999 -RA BKN009 BKN014 12/11 Q0999

TAF TAF EGPO
Valide du 23 à 12h jusqu'au 23 à 21h UTC


231058Z 2312/2321 19018KT 7000 -RADZ SCT008 BKN012
TEMPO 2312/2318 21025G38KT 3500 RADZ BKN005
PROB40
TEMPO 2312/2318 9999 NSW SCT015 BKN030
TEMPO 2318/2321 20020G30KT 2500 +RADZ BKN004
ATIS : +44 1851 707 444



MET'MAP, la Météo Aéronautique d'un coup d'oeil ! - Copyright ORBIFLY Décembre 2007 - Disclaimer

ORBIFLY MET'MAP TEAM :

Programmation & Développement : Alexandra Zaïnal
Conception & Développement : Baudouin d'Aumeries
Co-Programmation & Développement : Marc-Olivier Méhu
Soutien technique & logistique : Manuel Goepfert

Contact : metmap@orbifly.com




SOURCES & CREDITS :

   NOAA